Terminal Aerodrome Forecast
Issued by NWS Sterling, VA

Current Version | Previous Version | Text Only | Print | Product List | Glossary Off
Versions: 1 2 3 4 5 6 7 8 9 10 11 12 13 14 15 16

000
FTUS41 KLWX 151400 AAA
TAFMRB
TAF AMD
KMRB 151450Z 1515/1612 19008KT P6SM -SHRA OVC110
     FM151600 30018KT P6SM OVC015
     FM151800 31016KT P6SM -RA OVC025
     FM152000 32014KT P6SM -RA OVC015
     FM152300 31019G27KT P6SM SCT030 BKN050
     FM160400 32018G27KT P6SM FEW040 SCT200
     FM160900 32012KT P6SM FEW250=

USA.gov is the U.S. government's official web portal to all federal, state and local government web resources and services.